sensor_id;sensor_type;location;lat;lon;timestamp;pressure;altitude;pressure_sealevel;temperature;humidity
59877;BME280;45749;51.140;17.184;2023-02-24T00:02:03;99414.22;;;8.20;89.82
59877;BME280;45749;51.140;17.184;2023-02-24T00:04:37;99407.19;;;8.20;89.75
59877;BME280;45749;51.140;17.184;2023-02-24T00:07:03;99401.91;;;8.20;89.63
59877;BME280;45749;51.140;17.184;2023-02-24T00:09:30;99397.50;;;8.21;89.64
59877;BME280;45749;51.140;17.184;2023-02-24T00:12:05;99396.53;;;8.22;89.69
59877;BME280;45749;51.140;17.184;2023-02-24T00:14:36;99375.75;;;8.19;89.56
59877;BME280;45749;51.140;17.184;2023-02-24T00:17:02;99391.16;;;8.23;89.50
59877;BME280;45749;51.140;17.184;2023-02-24T00:19:29;99384.13;;;8.24;89.55
59877;BME280;45749;51.140;17.184;2023-02-24T00:21:57;99374.44;;;8.25;89.59
59877;BME280;45749;51.140;17.184;2023-02-24T00:24:24;99365.59;;;8.26;89.66
59877;BME280;45749;51.140;17.184;2023-02-24T00:26:56;99368.13;;;8.27;89.42
59877;BME280;45749;51.140;17.184;2023-02-24T00:29:27;99368.13;;;8.27;89.58
59877;BME280;45749;51.140;17.184;2023-02-24T00:31:54;99371.47;;;8.29;89.41
59877;BME280;45749;51.140;17.184;2023-02-24T00:34:31;99357.34;;;8.30;89.43
59877;BME280;45749;51.140;17.184;2023-02-24T00:36:58;99364.28;;;8.31;89.18
59877;BME280;45749;51.140;17.184;2023-02-24T00:39:24;99348.75;;;8.28;89.36
59877;BME280;45749;51.140;17.184;2023-02-24T00:41:57;99357.47;;;8.29;89.43
59877;BME280;45749;51.140;17.184;2023-02-24T00:44:36;99358.06;;;8.32;89.41
59877;BME280;45749;51.140;17.184;2023-02-24T00:47:03;99348.75;;;8.28;89.25
59877;BME280;45749;51.140;17.184;2023-02-24T00:49:29;99343.25;;;8.31;89.62
59877;BME280;45749;51.140;17.184;2023-02-24T00:51:56;99347.69;;;8.31;89.80
59877;BME280;45749;51.140;17.184;2023-02-24T00:54:22;99347.91;;;8.28;89.79
59877;BME280;45749;51.140;17.184;2023-02-24T00:56:51;99346.94;;;8.29;89.90
59877;BME280;45749;51.140;17.184;2023-02-24T00:59:17;99335.84;;;8.25;90.01
59877;BME280;45749;51.140;17.184;2023-02-24T01:01:46;99335.84;;;8.25;90.23
59877;BME280;45749;51.140;17.184;2023-02-24T01:04:14;99334.06;;;8.26;90.21
59877;BME280;45749;51.140;17.184;2023-02-24T01:06:45;99332.97;;;8.28;90.20
59877;BME280;45749;51.140;17.184;2023-02-24T01:09:14;99326.50;;;8.32;90.13
59877;BME280;45749;51.140;17.184;2023-02-24T01:11:41;99323.78;;;8.34;90.06
59877;BME280;45749;51.140;17.184;2023-02-24T01:14:29;99327.25;;;8.34;89.98
59877;BME280;45749;51.140;17.184;2023-02-24T01:16:55;99320.31;;;8.33;89.97
59877;BME280;45749;51.140;17.184;2023-02-24T01:19:24;99323.06;;;8.32;89.94
59877;BME280;45749;51.140;17.184;2023-02-24T01:21:54;99311.00;;;8.29;90.18
59877;BME280;45749;51.140;17.184;2023-02-24T01:24:22;99315.53;;;8.27;90.21
59877;BME280;45749;51.140;17.184;2023-02-24T01:26:48;99313.88;;;8.26;90.19
59877;BME280;45749;51.140;17.184;2023-02-24T01:29:13;99307.06;;;8.23;90.40
59877;BME280;45749;51.140;17.184;2023-02-24T01:31:39;99305.50;;;8.21;90.36
59877;BME280;45749;51.140;17.184;2023-02-24T01:34:09;99305.38;;;8.22;90.63
59877;BME280;45749;51.140;17.184;2023-02-24T01:36:36;99305.38;;;8.22;90.49
59877;BME280;45749;51.140;17.184;2023-02-24T01:39:03;99303.63;;;8.23;90.64
59877;BME280;45749;51.140;17.184;2023-02-24T01:41:30;99305.28;;;8.24;90.68
59877;BME280;45749;51.140;17.184;2023-02-24T01:44:05;99293.94;;;8.23;90.67
59877;BME280;45749;51.140;17.184;2023-02-24T01:46:37;99296.41;;;8.25;90.75
59877;BME280;45749;51.140;17.184;2023-02-24T01:49:11;99297.25;;;8.26;90.70
59877;BME280;45749;51.140;17.184;2023-02-24T01:54:20;99284.97;;;8.26;90.84
59877;BME280;45749;51.140;17.184;2023-02-24T01:56:48;99290.22;;;8.26;90.78
59877;BME280;45749;51.140;17.184;2023-02-24T01:59:16;99289.25;;;8.27;91.13
59877;BME280;45749;51.140;17.184;2023-02-24T02:01:43;99281.25;;;8.29;91.23
59877;BME280;45749;51.140;17.184;2023-02-24T02:04:20;99271.47;;;8.31;91.50
59877;BME280;45749;51.140;17.184;2023-02-24T02:06:49;99274.09;;;8.31;91.47
59877;BME280;45749;51.140;17.184;2023-02-24T02:09:15;99263.81;;;8.28;91.56
59877;BME280;45749;51.140;17.184;2023-02-24T02:11:42;99263.22;;;8.24;91.36
59877;BME280;45749;51.140;17.184;2023-02-24T02:14:14;99264.06;;;8.25;91.58
59877;BME280;45749;51.140;17.184;2023-02-24T02:30:06;99249.38;;;8.11;92.26
59877;BME280;45749;51.140;17.184;2023-02-24T02:35:42;99243.31;;;8.10;92.41
59877;BME280;45749;51.140;17.184;2023-02-24T02:41:25;99240.69;;;8.10;92.81
59877;BME280;45749;51.140;17.184;2023-02-24T02:46:40;99235.44;;;8.10;92.88
59877;BME280;45749;51.140;17.184;2023-02-24T02:49:20;99231.81;;;8.11;92.75
59877;BME280;45749;51.140;17.184;2023-02-24T02:51:54;99231.81;;;8.11;92.59
59877;BME280;45749;51.140;17.184;2023-02-24T02:54:31;99233.63;;;8.11;92.62
59877;BME280;45749;51.140;17.184;2023-02-24T02:57:10;99228.47;;;8.09;92.89
59877;BME280;45749;51.140;17.184;2023-02-24T02:59:43;99227.78;;;8.07;92.75
59877;BME280;45749;51.140;17.184;2023-02-24T03:02:15;99217.28;;;8.07;93.07
59877;BME280;45749;51.140;17.184;2023-02-24T03:04:49;99210.22;;;8.08;93.40
59877;BME280;45749;51.140;17.184;2023-02-24T03:07:18;99216.31;;;8.08;93.15
59877;BME280;45749;51.140;17.184;2023-02-24T03:09:49;99217.97;;;8.09;93.08
59877;BME280;45749;51.140;17.184;2023-02-24T03:12:20;99212.84;;;8.08;93.44
59877;BME280;45749;51.140;17.184;2023-02-24T03:14:58;99205.94;;;8.07;93.48
59877;BME280;45749;51.140;17.184;2023-02-24T03:17:29;99207.59;;;8.08;93.51
59877;BME280;45749;51.140;17.184;2023-02-24T03:20:09;99207.72;;;8.06;93.51
59877;BME280;45749;51.140;17.184;2023-02-24T03:22:47;99208.56;;;8.07;93.60
59877;BME280;45749;51.140;17.184;2023-02-24T03:25:20;99200.78;;;8.05;93.65
59877;BME280;45749;51.140;17.184;2023-02-24T03:27:51;99199.97;;;8.05;93.61
59877;BME280;45749;51.140;17.184;2023-02-24T03:30:43;99197.72;;;8.00;93.94
59877;BME280;45749;51.140;17.184;2023-02-24T03:33:25;99196.97;;;7.98;93.94
59877;BME280;45749;51.140;17.184;2023-02-24T03:35:54;99190.91;;;7.97;93.92
59877;BME280;45749;51.140;17.184;2023-02-24T03:38:26;99196.25;;;7.96;94.16
59877;BME280;45749;51.140;17.184;2023-02-24T03:40:53;99195.44;;;7.95;94.13
59877;BME280;45749;51.140;17.184;2023-02-24T03:43:28;99178.13;;;7.93;94.24
59877;BME280;45749;51.140;17.184;2023-02-24T03:45:54;99179.22;;;7.90;94.23
59877;BME280;45749;51.140;17.184;2023-02-24T03:48:20;99180.16;;;7.89;94.31
59877;BME280;45749;51.140;17.184;2023-02-24T03:50:47;99180.03;;;7.91;94.36
59877;BME280;45749;51.140;17.184;2023-02-24T03:53:36;99178.25;;;7.91;94.42
59877;BME280;45749;51.140;17.184;2023-02-24T04:01:51;99163.56;;;7.89;94.74
59877;BME280;45749;51.140;17.184;2023-02-24T04:07:14;99164.63;;;7.86;94.87
59877;BME280;45749;51.140;17.184;2023-02-24T04:14:57;99155.09;;;7.85;95.08
59877;BME280;45749;51.140;17.184;2023-02-24T04:20:04;99149.25;;;7.82;95.18
59877;BME280;45749;51.140;17.184;2023-02-24T04:22:38;99142.34;;;7.81;95.38
59877;BME280;45749;51.140;17.184;2023-02-24T04:25:05;99142.44;;;7.79;95.39
59877;BME280;45749;51.140;17.184;2023-02-24T04:27:38;99140.78;;;7.78;95.60
59877;BME280;45749;51.140;17.184;2023-02-24T04:30:06;99139.13;;;7.77;95.66
59877;BME280;45749;51.140;17.184;2023-02-24T04:32:36;99138.31;;;7.77;95.76
59877;BME280;45749;51.140;17.184;2023-02-24T04:35:05;99129.69;;;7.74;95.76
59877;BME280;45749;51.140;17.184;2023-02-24T04:37:31;99126.25;;;7.74;95.80
59877;BME280;45749;51.140;17.184;2023-02-24T04:40:00;99129.69;;;7.74;95.77
59877;BME280;45749;51.140;17.184;2023-02-24T04:42:26;99127.19;;;7.73;96.32
59877;BME280;45749;51.140;17.184;2023-02-24T04:44:51;99127.19;;;7.73;96.13
59877;BME280;45749;51.140;17.184;2023-02-24T04:47:18;99119.69;;;7.68;96.25
59877;BME280;45749;51.140;17.184;2023-02-24T04:49:43;99122.16;;;7.70;96.53
59877;BME280;45749;51.140;17.184;2023-02-24T04:52:09;99119.81;;;7.67;96.68
59877;BME280;45749;51.140;17.184;2023-02-24T04:54:34;99120.50;;;7.69;96.76
59877;BME280;45749;51.140;17.184;2023-02-24T04:57:00;99117.88;;;7.69;96.85
59877;BME280;45749;51.140;17.184;2023-02-24T04:59:26;99115.25;;;7.69;96.99
59877;BME280;45749;51.140;17.184;2023-02-24T05:01:51;99106.56;;;7.68;97.00
59877;BME280;45749;51.140;17.184;2023-02-24T05:04:19;99109.91;;;7.70;97.05
59877;BME280;45749;51.140;17.184;2023-02-24T05:06:45;99109.75;;;7.72;97.09
59877;BME280;45749;51.140;17.184;2023-02-24T05:09:14;99108.09;;;7.71;97.17
59877;BME280;45749;51.140;17.184;2023-02-24T05:11:46;99099.50;;;7.69;97.52
59877;BME280;45749;51.140;17.184;2023-02-24T05:14:14;99097.13;;;7.66;97.98
59877;BME280;45749;51.140;17.184;2023-02-24T05:16:44;99096.44;;;7.64;98.09
59877;BME280;45749;51.140;17.184;2023-02-24T05:19:14;99099.06;;;7.64;98.30
59877;BME280;45749;51.140;17.184;2023-02-24T05:21:59;99095.56;;;7.63;98.75
59877;BME280;45749;51.140;17.184;2023-02-24T05:24:28;99089.72;;;7.60;99.17
59877;BME280;45749;51.140;17.184;2023-02-24T05:26:55;99099.31;;;7.61;99.02
59877;BME280;45749;51.140;17.184;2023-02-24T05:29:28;99090.84;;;7.57;99.33
59877;BME280;45749;51.140;17.184;2023-02-24T05:31:57;99089.97;;;7.57;99.77
59877;BME280;45749;51.140;17.184;2023-02-24T05:34:27;99087.50;;;7.55;99.76
59877;BME280;45749;51.140;17.184;2023-02-24T05:36:55;99085.69;;;7.56;100.00
59877;BME280;45749;51.140;17.184;2023-02-24T05:39:21;99093.56;;;7.56;100.00
59877;BME280;45749;51.140;17.184;2023-02-24T05:41:48;99086.53;;;7.56;100.00
59877;BME280;45749;51.140;17.184;2023-02-24T05:44:18;99085.00;;;7.54;100.00
59877;BME280;45749;51.140;17.184;2023-02-24T05:46:55;99082.97;;;7.57;100.00
59877;BME280;45749;51.140;17.184;2023-02-24T05:49:26;99085.59;;;7.57;100.00
59877;BME280;45749;51.140;17.184;2023-02-24T05:51:56;99084.72;;;7.57;100.00
59877;BME280;45749;51.140;17.184;2023-02-24T05:54:34;99086.53;;;7.56;100.00
59877;BME280;45749;51.140;17.184;2023-02-24T05:57:02;99085.00;;;7.54;100.00
59877;BME280;45749;51.140;17.184;2023-02-24T05:59:28;99079.47;;;7.57;100.00
59877;BME280;45749;51.140;17.184;2023-02-24T06:02:02;99089.03;;;7.58;100.00
59877;BME280;45749;51.140;17.184;2023-02-24T06:04:35;99087.34;;;7.57;100.00
59877;BME280;45749;51.140;17.184;2023-02-24T06:07:24;99089.97;;;7.57;100.00
59877;BME280;45749;51.140;17.184;2023-02-24T06:09:55;99091.66;;;7.58;100.00
59877;BME280;45749;51.140;17.184;2023-02-24T06:12:26;99093.56;;;7.56;100.00
59877;BME280;45749;51.140;17.184;2023-02-24T06:14:52;99088.31;;;7.56;100.00
59877;BME280;45749;51.140;17.184;2023-02-24T06:17:19;99089.97;;;7.57;100.00
59877;BME280;45749;51.140;17.184;2023-02-24T06:19:45;99087.50;;;7.55;100.00
59877;BME280;45749;51.140;17.184;2023-02-24T06:22:15;99085.00;;;7.54;100.00
59877;BME280;45749;51.140;17.184;2023-02-24T06:24:43;99087.97;;;7.49;100.00
59877;BME280;45749;51.140;17.184;2023-02-24T06:27:13;99090.16;;;7.44;100.00
59877;BME280;45749;51.140;17.184;2023-02-24T06:29:47;99091.31;;;7.40;100.00
59877;BME280;45749;51.140;17.184;2023-02-24T06:32:17;99098.72;;;7.35;100.00
59877;BME280;45749;51.140;17.184;2023-02-24T06:34:42;99096.44;;;7.30;100.00
59877;BME280;45749;51.140;17.184;2023-02-24T06:37:11;99088.72;;;7.28;100.00
59877;BME280;45749;51.140;17.184;2023-02-24T06:39:37;99087.16;;;7.26;100.00
59877;BME280;45749;51.140;17.184;2023-02-24T06:42:03;99088.00;;;7.26;100.00
59877;BME280;45749;51.140;17.184;2023-02-24T06:44:34;99089.91;;;7.24;100.00
59877;BME280;45749;51.140;17.184;2023-02-24T06:47:00;99082.38;;;7.20;100.00
59877;BME280;45749;51.140;17.184;2023-02-24T06:49:26;99082.63;;;7.17;100.00
59877;BME280;45749;51.140;17.184;2023-02-24T06:51:52;99086.94;;;7.18;100.00
59877;BME280;45749;51.140;17.184;2023-02-24T06:54:21;99085.84;;;7.20;100.00
59877;BME280;45749;51.140;17.184;2023-02-24T06:56:48;99091.09;;;7.20;100.00
59877;BME280;45749;51.140;17.184;2023-02-24T06:59:14;99098.84;;;7.22;100.00
59877;BME280;45749;51.140;17.184;2023-02-24T07:01:49;99089.91;;;7.24;100.00
59877;BME280;45749;51.140;17.184;2023-02-24T07:04:15;99083.84;;;7.24;100.00
59877;BME280;45749;51.140;17.184;2023-02-24T07:06:42;99092.53;;;7.24;100.00
59877;BME280;45749;51.140;17.184;2023-02-24T07:09:11;99090.97;;;7.22;100.00
59877;BME280;45749;51.140;17.184;2023-02-24T07:11:42;99098.13;;;7.20;100.00
59877;BME280;45749;51.140;17.184;2023-02-24T07:14:09;99091.69;;;7.13;100.00
59877;BME280;45749;51.140;17.184;2023-02-24T07:16:36;99097.53;;;7.16;100.00
59877;BME280;45749;51.140;17.184;2023-02-24T07:19:05;99095.88;;;7.15;100.00
59877;BME280;45749;51.140;17.184;2023-02-24T07:21:36;99093.34;;;7.14;100.00
59877;BME280;45749;51.140;17.184;2023-02-24T07:24:13;99091.84;;;7.11;100.00
59877;BME280;45749;51.140;17.184;2023-02-24T07:26:44;99093.59;;;7.11;100.00
59877;BME280;45749;51.140;17.184;2023-02-24T07:29:16;99089.44;;;7.08;100.00
59877;BME280;45749;51.140;17.184;2023-02-24T07:31:42;99085.50;;;7.02;100.00
59877;BME280;45749;51.140;17.184;2023-02-24T07:34:07;99088.94;;;7.03;100.00
59877;BME280;45749;51.140;17.184;2023-02-24T07:36:33;99077.88;;;6.99;100.00
59877;BME280;45749;51.140;17.184;2023-02-24T07:39:13;99080.72;;;6.96;100.00
59877;BME280;45749;51.140;17.184;2023-02-24T07:41:40;99080.72;;;6.96;100.00
59877;BME280;45749;51.140;17.184;2023-02-24T07:44:11;99072.16;;;6.94;100.00
59877;BME280;45749;51.140;17.184;2023-02-24T07:46:38;99068.69;;;6.94;100.00
59877;BME280;45749;51.140;17.184;2023-02-24T07:49:03;99071.31;;;6.94;100.00
59877;BME280;45749;51.140;17.184;2023-02-24T07:51:34;99066.91;;;6.94;100.00
59877;BME280;45749;51.140;17.184;2023-02-24T07:54:00;99069.53;;;6.94;100.00
59877;BME280;45749;51.140;17.184;2023-02-24T07:56:28;99071.44;;;6.92;100.00
59877;BME280;45749;51.140;17.184;2023-02-24T07:59:02;99074.28;;;6.89;100.00
59877;BME280;45749;51.140;17.184;2023-02-24T08:01:33;99067.38;;;6.88;100.00
59877;BME280;45749;51.140;17.184;2023-02-24T08:04:03;99069.28;;;6.86;100.00
59877;BME280;45749;51.140;17.184;2023-02-24T08:06:37;99073.78;;;6.84;100.00
59877;BME280;45749;51.140;17.184;2023-02-24T08:09:05;99066.16;;;6.81;100.00
59877;BME280;45749;51.140;17.184;2023-02-24T08:11:54;99064.75;;;6.77;100.00
59877;BME280;45749;51.140;17.184;2023-02-24T08:16:52;99060.91;;;6.70;100.00
59877;BME280;45749;51.140;17.184;2023-02-24T08:19:27;99057.47;;;6.69;100.00
59877;BME280;45749;51.140;17.184;2023-02-24T08:22:08;99048.53;;;6.72;100.00
59877;BME280;45749;51.140;17.184;2023-02-24T08:24:55;99048.31;;;6.75;100.00
59877;BME280;45749;51.140;17.184;2023-02-24T08:27:25;99041.16;;;6.77;100.00
59877;BME280;45749;51.140;17.184;2023-02-24T08:29:55;99043.16;;;6.73;100.00
59877;BME280;45749;51.140;17.184;2023-02-24T08:32:37;99043.91;;;6.75;100.00
59877;BME280;45749;51.140;17.184;2023-02-24T08:35:08;99039.72;;;6.73;100.00
59877;BME280;45749;51.140;17.184;2023-02-24T08:37:40;99044.22;;;6.71;100.00
59877;BME280;45749;51.140;17.184;2023-02-24T08:40:14;99045.91;;;6.72;100.00
59877;BME280;45749;51.140;17.184;2023-02-24T08:42:56;99042.34;;;6.73;100.00
59877;BME280;45749;51.140;17.184;2023-02-24T08:45:31;99037.09;;;6.73;100.00
59877;BME280;45749;51.140;17.184;2023-02-24T08:47:58;99035.44;;;6.72;100.00
59877;BME280;45749;51.140;17.184;2023-02-24T08:50:28;99036.50;;;6.69;100.00
59877;BME280;45749;51.140;17.184;2023-02-24T08:52:58;99033.75;;;6.71;100.00
59877;BME280;45749;51.140;17.184;2023-02-24T08:55:25;99029.59;;;6.68;100.00
59877;BME280;45749;51.140;17.184;2023-02-24T08:57:58;99038.06;;;6.72;100.00
59877;BME280;45749;51.140;17.184;2023-02-24T09:00:27;99037.22;;;6.71;100.00
59877;BME280;45749;51.140;17.184;2023-02-24T09:03:12;99028.50;;;6.71;100.00
59877;BME280;45749;51.140;17.184;2023-02-24T09:05:58;99027.81;;;6.69;100.00
59877;BME280;45749;51.140;17.184;2023-02-24T09:08:24;99021.13;;;6.65;100.00
59877;BME280;45749;51.140;17.184;2023-02-24T09:10:57;99027.06;;;6.67;100.00
59877;BME280;45749;51.140;17.184;2023-02-24T09:13:23;99007.06;;;6.66;100.00
59877;BME280;45749;51.140;17.184;2023-02-24T09:15:58;99013.97;;;6.67;100.00
59877;BME280;45749;51.140;17.184;2023-02-24T09:18:24;99002.41;;;6.69;100.00
59877;BME280;45749;51.140;17.184;2023-02-24T09:20:57;99001.34;;;6.72;100.00
59877;BME280;45749;51.140;17.184;2023-02-24T09:23:41;99001.13;;;6.75;100.00
59877;BME280;45749;51.140;17.184;2023-02-24T09:26:13;99003.38;;;6.79;100.00
59877;BME280;45749;51.140;17.184;2023-02-24T09:28:39;98998.00;;;6.81;100.00
59877;BME280;45749;51.140;17.184;2023-02-24T09:31:19;98992.41;;;6.86;100.00
59877;BME280;45749;51.140;17.184;2023-02-24T09:33:48;98993.09;;;6.88;100.00
59877;BME280;45749;51.140;17.184;2023-02-24T09:36:19;98988.47;;;6.91;100.00
59877;BME280;45749;51.140;17.184;2023-02-24T09:38:53;98989.91;;;6.95;100.00
59877;BME280;45749;51.140;17.184;2023-02-24T09:44:03;98977.47;;;6.97;100.00
59877;BME280;45749;51.140;17.184;2023-02-24T09:46:51;98976.31;;;7.01;100.00
59877;BME280;45749;51.140;17.184;2023-02-24T09:49:22;98973.69;;;7.01;100.00
59877;BME280;45749;51.140;17.184;2023-02-24T09:51:49;98968.44;;;7.01;100.00
59877;BME280;45749;51.140;17.184;2023-02-24T09:54:30;98971.75;;;7.03;100.00
59877;BME280;45749;51.140;17.184;2023-02-24T09:57:02;98969.13;;;7.03;100.00
59877;BME280;45749;51.140;17.184;2023-02-24T09:59:47;98967.47;;;7.02;99.96
59877;BME280;45749;51.140;17.184;2023-02-24T10:02:40;98959.84;;;6.99;99.99
59877;BME280;45749;51.140;17.184;2023-02-24T10:05:20;98963.19;;;7.01;100.00
59877;BME280;45749;51.140;17.184;2023-02-24T10:07:49;98957.94;;;7.01;100.00
59877;BME280;45749;51.140;17.184;2023-02-24T10:10:21;98950.66;;;7.05;100.00
59877;BME280;45749;51.140;17.184;2023-02-24T10:13:10;98949.44;;;7.09;99.90
59877;BME280;45749;51.140;17.184;2023-02-24T10:15:40;98951.84;;;7.12;100.00
59877;BME280;45749;51.140;17.184;2023-02-24T10:18:29;98953.88;;;7.09;99.21
59877;BME280;45749;51.140;17.184;2023-02-24T10:21:19;98950.66;;;7.05;98.78
59877;BME280;45749;51.140;17.184;2023-02-24T10:24:06;98960.47;;;6.92;97.79
59877;BME280;45749;51.140;17.184;2023-02-24T10:26:38;98948.44;;;6.78;97.99
59877;BME280;45749;51.140;17.184;2023-02-24T10:29:30;98956.56;;;6.75;97.96
59877;BME280;45749;51.140;17.184;2023-02-24T10:32:23;98947.59;;;6.66;97.89
59877;BME280;45749;51.140;17.184;2023-02-24T10:34:58;98938.56;;;6.59;97.71
59877;BME280;45749;51.140;17.184;2023-02-24T10:37:25;98930.34;;;6.52;97.92
59877;BME280;45749;51.140;17.184;2023-02-24T10:40:11;98917.47;;;6.49;98.28
59877;BME280;45749;51.140;17.184;2023-02-24T10:42:49;98917.47;;;6.49;98.09
59877;BME280;45749;51.140;17.184;2023-02-24T10:45:19;98915.09;;;6.46;97.87
59877;BME280;45749;51.140;17.184;2023-02-24T10:47:55;98910.91;;;6.44;97.93
59877;BME280;45749;51.140;17.184;2023-02-24T10:50:24;98902.00;;;6.46;98.20
59877;BME280;45749;51.140;17.184;2023-02-24T10:52:54;98896.63;;;6.48;98.11
59877;BME280;45749;51.140;17.184;2023-02-24T10:58:15;98869.69;;;6.57;98.43
59877;BME280;45749;51.140;17.184;2023-02-24T11:00:53;98876.25;;;6.63;98.27
59877;BME280;45749;51.140;17.184;2023-02-24T11:03:45;98875.03;;;6.67;98.27
59877;BME280;45749;51.140;17.184;2023-02-24T11:06:27;98869.56;;;6.70;97.77
59877;BME280;45749;51.140;17.184;2023-02-24T11:09:05;98869.31;;;6.73;98.08
59877;BME280;45749;51.140;17.184;2023-02-24T11:11:45;98864.78;;;6.75;98.14
59877;BME280;45749;51.140;17.184;2023-02-24T11:14:30;98870.88;;;6.75;97.62
59877;BME280;45749;51.140;17.184;2023-02-24T11:17:22;98854.31;;;6.75;97.36
59877;BME280;45749;51.140;17.184;2023-02-24T11:20:00;98848.34;;;6.73;97.39
59877;BME280;45749;51.140;17.184;2023-02-24T11:22:37;98842.13;;;6.74;97.80
59877;BME280;45749;51.140;17.184;2023-02-24T11:25:13;98830.81;;;6.73;97.64
59877;BME280;45749;51.140;17.184;2023-02-24T11:27:42;98821.88;;;6.76;98.56
59877;BME280;45749;51.140;17.184;2023-02-24T11:30:33;98826.88;;;6.79;98.38
59877;BME280;45749;51.140;17.184;2023-02-24T11:33:41;98817.34;;;6.78;98.53
59877;BME280;45749;51.140;17.184;2023-02-24T11:39:29;98802.91;;;6.84;98.59
59877;BME280;45749;51.140;17.184;2023-02-24T11:42:02;98806.94;;;6.88;98.54
59877;BME280;45749;51.140;17.184;2023-02-24T11:44:35;98797.16;;;6.90;98.38
59877;BME280;45749;51.140;17.184;2023-02-24T11:47:13;98796.19;;;6.91;98.39
59877;BME280;45749;51.140;17.184;2023-02-24T11:50:03;98793.00;;;6.87;97.25
59877;BME280;45749;51.140;17.184;2023-02-24T11:52:34;98790.50;;;6.86;97.57
59877;BME280;45749;51.140;17.184;2023-02-24T11:55:04;98796.56;;;6.86;97.17
59877;BME280;45749;51.140;17.184;2023-02-24T11:57:47;98791.59;;;6.83;96.59
59877;BME280;45749;51.140;17.184;2023-02-24T12:00:15;98787.41;;;6.80;95.93
59877;BME280;45749;51.140;17.184;2023-02-24T12:02:58;98779.09;;;6.75;95.71
59877;BME280;45749;51.140;17.184;2023-02-24T12:05:39;98777.41;;;6.74;96.28
59877;BME280;45749;51.140;17.184;2023-02-24T12:10:38;98768.63;;;6.75;96.07
59877;BME280;45749;51.140;17.184;2023-02-24T12:20:48;98759.47;;;6.70;96.34
59877;BME280;45749;51.140;17.184;2023-02-24T12:23:30;98751.47;;;6.71;96.15
59877;BME280;45749;51.140;17.184;2023-02-24T12:26:19;98748.72;;;6.73;96.37
59877;BME280;45749;51.140;17.184;2023-02-24T12:29:08;98745.84;;;6.76;96.61
59877;BME280;45749;51.140;17.184;2023-02-24T12:32:13;98747.25;;;6.80;96.93
59877;BME280;45749;51.140;17.184;2023-02-24T12:35:02;98734.88;;;6.82;96.41
59877;BME280;45749;51.140;17.184;2023-02-24T12:40:34;98734.63;;;6.85;95.94
59877;BME280;45749;51.140;17.184;2023-02-24T12:59:24;98691.06;;;7.15;96.94
59877;BME280;45749;51.140;17.184;2023-02-24T13:10:16;98669.97;;;7.47;95.46
59877;BME280;45749;51.140;17.184;2023-02-24T13:13:05;98669.81;;;7.48;94.60
59877;BME280;45749;51.140;17.184;2023-02-24T13:15:32;98662.19;;;7.45;94.26
59877;BME280;45749;51.140;17.184;2023-02-24T13:17:58;98661.22;;;7.46;94.64
59877;BME280;45749;51.140;17.184;2023-02-24T13:20:26;98654.06;;;7.48;94.39
59877;BME280;45749;51.140;17.184;2023-02-24T13:22:52;98644.13;;;7.52;94.14
59877;BME280;45749;51.140;17.184;2023-02-24T13:25:20;98641.94;;;7.57;94.65
59877;BME280;45749;51.140;17.184;2023-02-24T13:27:56;98641.53;;;7.62;94.12
59877;BME280;45749;51.140;17.184;2023-02-24T13:33:20;98631.47;;;7.67;93.59
59877;BME280;45749;51.140;17.184;2023-02-24T13:35:52;98614.75;;;7.68;93.39
59877;BME280;45749;51.140;17.184;2023-02-24T13:41:06;98611.41;;;7.66;93.05
59877;BME280;45749;51.140;17.184;2023-02-24T13:43:32;98604.25;;;7.68;93.04
59877;BME280;45749;51.140;17.184;2023-02-24T13:46:13;98597.19;;;7.68;92.98
59877;BME280;45749;51.140;17.184;2023-02-24T14:04:35;98579.00;;;7.77;91.95
59877;BME280;45749;51.140;17.184;2023-02-24T14:07:15;98579.00;;;7.77;91.80
59877;BME280;45749;51.140;17.184;2023-02-24T14:09:44;98572.88;;;7.76;91.86
59877;BME280;45749;51.140;17.184;2023-02-24T14:12:23;98568.59;;;7.75;91.63
59877;BME280;45749;51.140;17.184;2023-02-24T14:14:50;98572.88;;;7.76;91.15
59877;BME280;45749;51.140;17.184;2023-02-24T14:17:31;98576.38;;;7.77;91.54
59877;BME280;45749;51.140;17.184;2023-02-24T14:22:47;98568.59;;;7.75;89.73
59877;BME280;45749;51.140;17.184;2023-02-24T14:25:14;98565.97;;;7.75;90.06
59877;BME280;45749;51.140;17.184;2023-02-24T14:27:46;98565.00;;;7.76;90.49
59877;BME280;45749;51.140;17.184;2023-02-24T14:30:29;98565.00;;;7.76;89.99
59877;BME280;45749;51.140;17.184;2023-02-24T14:32:56;98565.28;;;7.73;89.16
59877;BME280;45749;51.140;17.184;2023-02-24T14:35:26;98563.91;;;7.69;89.72
59877;BME280;45749;51.140;17.184;2023-02-24T14:37:52;98562.38;;;7.66;89.92
59877;BME280;45749;51.140;17.184;2023-02-24T14:40:18;98558.09;;;7.65;90.63
59877;BME280;45749;51.140;17.184;2023-02-24T14:42:48;98553.94;;;7.63;90.81
59877;BME280;45749;51.140;17.184;2023-02-24T14:45:21;98552.44;;;7.60;90.96
59877;BME280;45749;51.140;17.184;2023-02-24T14:47:47;98557.81;;;7.59;90.82
59877;BME280;45749;51.140;17.184;2023-02-24T14:50:17;98550.19;;;7.56;90.61
59877;BME280;45749;51.140;17.184;2023-02-24T14:52:47;98554.78;;;7.54;90.49
59877;BME280;45749;51.140;17.184;2023-02-24T14:55:25;98558.75;;;7.48;90.41
59877;BME280;45749;51.140;17.184;2023-02-24T15:00:30;98538.72;;;7.37;90.15
59877;BME280;45749;51.140;17.184;2023-02-24T15:05:31;98532.88;;;7.24;88.99
59877;BME280;45749;51.140;17.184;2023-02-24T15:07:57;98523.75;;;7.18;89.46
59877;BME280;45749;51.140;17.184;2023-02-24T15:10:27;98516.25;;;7.14;89.64
59877;BME280;45749;51.140;17.184;2023-02-24T15:13:17;98507.72;;;7.12;89.18
59877;BME280;45749;51.140;17.184;2023-02-24T15:15:46;98504.66;;;7.07;89.03
59877;BME280;45749;51.140;17.184;2023-02-24T15:18:27;98497.19;;;7.02;89.26
59877;BME280;45749;51.140;17.184;2023-02-24T15:21:05;98494.69;;;7.00;89.31
59877;BME280;45749;51.140;17.184;2023-02-24T15:23:33;98494.00;;;6.98;88.99
59877;BME280;45749;51.140;17.184;2023-02-24T15:25:59;98492.22;;;6.99;89.32